createdAt,value
2023-01-17T00:02:14.204Z,99837.69
2023-01-17T00:05:00.338Z,99828.16
2023-01-17T00:07:46.663Z,99826.41
2023-01-17T00:10:17.400Z,99828.69
2023-01-17T00:12:57.046Z,99831.34
2023-01-17T00:15:25.647Z,99826.47
2023-01-17T00:17:53.546Z,99812.53
2023-01-17T00:20:42.613Z,99818.56
2023-01-17T00:23:33.237Z,99831.41
2023-01-17T00:26:03.260Z,99825.53
2023-01-17T00:28:36.215Z,99814.66
2023-01-17T00:31:05.010Z,99813.16
2023-01-17T00:33:32.072Z,99823.84
2023-01-17T00:36:00.232Z,99814.97
2023-01-17T00:38:29.714Z,99815.78
2023-01-17T00:41:05.870Z,99818.09
2023-01-17T00:43:51.241Z,99819.81
2023-01-17T00:46:37.002Z,99827.09
2023-01-17T00:49:23.077Z,99818.56
2023-01-17T00:52:08.711Z,99825.25
2023-01-17T00:54:54.344Z,99829.44
2023-01-17T00:57:39.809Z,99831.25
2023-01-17T01:00:26.051Z,99827.72
2023-01-17T01:03:11.574Z,99829.94
2023-01-17T01:05:56.963Z,99829.84
2023-01-17T01:08:44.688Z,99831.03
2023-01-17T01:11:33.686Z,99834.63
2023-01-17T01:14:19.737Z,99800.31
2023-01-17T01:17:05.636Z,99824.03
2023-01-17T01:19:51.497Z,99824.50
2023-01-17T01:22:36.832Z,99820.63
2023-01-17T01:25:22.865Z,99819.56
2023-01-17T01:28:08.414Z,99824.22
2023-01-17T01:30:53.940Z,99826.72
2023-01-17T01:33:20.778Z,99821.22
2023-01-17T01:35:56.782Z,99805.38
2023-01-17T01:38:26.306Z,99803.97
2023-01-17T01:40:56.070Z,99811.47
2023-01-17T01:43:49.122Z,99817.59
2023-01-17T01:46:41.159Z,99805.06
2023-01-17T01:49:25.832Z,99797.97
2023-01-17T01:51:58.496Z,99801.59
2023-01-17T01:54:37.215Z,99813.34
2023-01-17T01:57:07.692Z,99799.22
2023-01-17T01:59:41.110Z,99806.13
2023-01-17T02:02:08.769Z,99811.72
2023-01-17T02:04:36.231Z,99816.09
2023-01-17T02:07:12.539Z,99805.06
2023-01-17T02:09:39.446Z,99805.56
2023-01-17T02:12:07.453Z,99815.50
2023-01-17T02:14:34.345Z,99810.56
2023-01-17T02:17:04.256Z,99805.44
2023-01-17T02:20:05.052Z,99809.06
2023-01-17T02:23:09.655Z,99800.09
2023-01-17T02:26:14.707Z,99797.22
2023-01-17T02:28:50.233Z,99796.16
2023-01-17T02:31:52.254Z,99790.19
2023-01-17T02:34:26.335Z,99788.91
2023-01-17T02:37:19.712Z,99781.47
2023-01-17T02:39:56.654Z,99792.25
2023-01-17T02:42:26.750Z,99788.53
2023-01-17T02:44:53.653Z,99783.78
2023-01-17T02:47:27.068Z,99777.28
2023-01-17T02:50:02.246Z,99772.16
2023-01-17T02:53:07.804Z,99777.72
2023-01-17T02:55:55.240Z,99771.69
2023-01-17T02:58:59.249Z,99778.50
2023-01-17T03:01:44.157Z,99774.34
2023-01-17T03:04:29.363Z,99775.19
2023-01-17T03:07:03.879Z,99758.34
2023-01-17T03:09:31.851Z,99756.59
2023-01-17T03:11:59.754Z,99768.22
2023-01-17T03:14:26.766Z,99765.13
2023-01-17T03:16:53.739Z,99761.16
2023-01-17T03:19:20.678Z,99764.75
2023-01-17T03:21:49.416Z,99768.78
2023-01-17T03:24:16.569Z,99769.75
2023-01-17T03:26:47.980Z,99774.28
2023-01-17T03:29:16.698Z,99766.06
2023-01-17T03:31:43.780Z,99766.50
2023-01-17T03:34:10.740Z,99762.34
2023-01-17T03:36:37.700Z,99762.56
2023-01-17T03:39:04.654Z,99749.56
2023-01-17T03:41:31.606Z,99760.84
2023-01-17T03:43:58.574Z,99756.38
2023-01-17T03:46:27.588Z,99753.06
2023-01-17T03:48:55.017Z,99748.75
2023-01-17T03:51:22.126Z,99760.94
2023-01-17T03:53:50.114Z,99764.91
2023-01-17T03:56:17.052Z,99757.88
2023-01-17T03:58:44.104Z,99762.84
2023-01-17T04:01:11.632Z,99757.50
2023-01-17T04:03:38.940Z,99765.22
2023-01-17T04:06:06.114Z,99765.50
2023-01-17T04:08:33.183Z,99766.97
2023-01-17T04:11:00.150Z,99763.88
2023-01-17T04:13:27.083Z,99773.38
2023-01-17T04:15:54.004Z,99774.28
2023-01-17T04:18:23.161Z,99780.16
2023-01-17T04:20:50.918Z,99776.63
2023-01-17T04:23:18.657Z,99771.66
2023-01-17T04:25:45.660Z,99788.03
2023-01-17T04:28:12.750Z,99775.34
2023-01-17T04:30:39.712Z,99785.38
2023-01-17T04:33:06.675Z,99787.72
2023-01-17T04:35:33.766Z,99788.56
2023-01-17T04:38:01.033Z,99766.28
2023-01-17T04:40:29.721Z,99782.28
2023-01-17T04:42:57.955Z,99787.22
2023-01-17T04:45:25.119Z,99789.63
2023-01-17T04:47:52.113Z,99785.31
2023-01-17T04:50:19.067Z,99774.22
2023-01-17T04:52:46.062Z,99771.41
2023-01-17T04:55:13.147Z,99777.88
2023-01-17T04:57:40.068Z,99776.47
2023-01-17T05:00:07.730Z,99785.66
2023-01-17T05:02:34.769Z,99770.97
2023-01-17T05:05:01.680Z,99782.13
2023-01-17T05:07:30.379Z,99768.59
2023-01-17T05:09:57.320Z,99783.13
2023-01-17T05:12:24.208Z,99781.84
2023-01-17T05:14:51.485Z,99775.88
2023-01-17T05:17:18.396Z,99779.88
2023-01-17T05:19:45.521Z,99773.97
2023-01-17T05:22:16.589Z,99778.88
2023-01-17T05:24:47.443Z,99768.06
2023-01-17T05:27:15.287Z,99779.41
2023-01-17T05:29:42.374Z,99777.44
2023-01-17T05:32:09.428Z,99785.00
2023-01-17T05:34:36.415Z,99779.41
2023-01-17T05:37:03.355Z,99773.19
2023-01-17T05:39:31.145Z,99784.38
2023-01-17T05:41:59.114Z,99783.16
2023-01-17T05:44:27.835Z,99787.94
2023-01-17T05:46:55.167Z,99783.50
2023-01-17T05:49:22.253Z,99783.19
2023-01-17T05:51:49.475Z,99786.22
2023-01-17T05:54:16.545Z,99779.84
2023-01-17T05:56:44.004Z,99782.56
2023-01-17T05:59:13.948Z,99782.56
2023-01-17T06:01:40.993Z,99779.19
2023-01-17T06:04:07.942Z,99790.66
2023-01-17T06:06:34.791Z,99785.28
2023-01-17T06:09:01.870Z,99778.00
2023-01-17T06:11:28.896Z,99788.06
2023-01-17T06:13:55.772Z,99782.94
2023-01-17T06:16:22.766Z,99781.94
2023-01-17T06:18:49.662Z,99792.38
2023-01-17T06:21:16.525Z,99779.09
2023-01-17T06:23:43.405Z,99801.84
2023-01-17T06:26:11.155Z,99791.19
2023-01-17T06:28:38.060Z,99790.25
2023-01-17T06:31:09.308Z,99797.53
2023-01-17T06:33:36.359Z,99793.69
2023-01-17T06:36:03.587Z,99794.88
2023-01-17T06:38:30.476Z,99790.09
2023-01-17T06:41:00.601Z,99788.44
2023-01-17T06:43:32.650Z,99791.91
2023-01-17T06:46:01.057Z,99783.31
2023-01-17T06:48:28.259Z,99788.53
2023-01-17T06:50:57.073Z,99793.81
2023-01-17T06:53:24.042Z,99786.72
2023-01-17T06:55:52.633Z,99792.31
2023-01-17T06:58:19.481Z,99801.53
2023-01-17T07:00:46.672Z,99788.31
2023-01-17T07:03:20.927Z,99794.72
2023-01-17T07:05:48.879Z,99788.94
2023-01-17T07:08:17.160Z,99800.25
2023-01-17T07:10:45.344Z,99788.66
2023-01-17T07:13:12.991Z,99792.72
2023-01-17T07:15:40.437Z,99789.56
2023-01-17T07:18:08.102Z,99803.72
2023-01-17T07:20:35.037Z,99792.56
2023-01-17T07:23:01.984Z,99795.59
2023-01-17T07:25:28.917Z,99791.50
2023-01-17T07:27:57.882Z,99794.31
2023-01-17T07:30:25.480Z,99802.03
2023-01-17T07:32:54.806Z,99796.66
2023-01-17T07:35:22.898Z,99791.19
2023-01-17T07:37:50.914Z,99797.31
2023-01-17T07:40:20.116Z,99800.13
2023-01-17T07:42:47.577Z,99786.84
2023-01-17T07:45:16.562Z,99797.22
2023-01-17T07:47:43.677Z,99804.38
2023-01-17T07:50:11.540Z,99798.34
2023-01-17T07:52:38.619Z,99798.50
2023-01-17T07:55:06.305Z,99799.63
2023-01-17T07:57:33.307Z,99805.13
2023-01-17T08:00:00.324Z,99801.47
2023-01-17T08:02:27.293Z,99799.63
2023-01-17T08:04:54.130Z,99796.81
2023-01-17T08:07:21.033Z,99805.81
2023-01-17T08:09:49.904Z,99802.47
2023-01-17T08:12:17.155Z,99814.09
2023-01-17T08:14:44.649Z,99815.09
2023-01-17T08:17:14.648Z,99813.44
2023-01-17T08:19:41.628Z,99809.94
2023-01-17T08:22:08.703Z,99813.28
2023-01-17T08:24:35.625Z,99807.63
2023-01-17T08:27:02.571Z,99803.31
2023-01-17T08:29:29.664Z,99808.47
2023-01-17T08:31:56.561Z,99799.31
2023-01-17T08:34:23.619Z,99807.44
2023-01-17T08:36:52.989Z,99798.25
2023-01-17T08:39:21.066Z,99799.28
2023-01-17T08:41:48.028Z,99797.06
2023-01-17T08:44:15.934Z,99807.63
2023-01-17T08:46:44.407Z,99797.41
2023-01-17T08:49:12.581Z,99796.81
2023-01-17T08:51:40.405Z,99797.13
2023-01-17T08:54:09.583Z,99795.81
2023-01-17T08:56:36.465Z,99803.34
2023-01-17T08:59:03.605Z,99797.97
2023-01-17T09:01:30.666Z,99799.44
2023-01-17T09:03:57.681Z,99791.78
2023-01-17T09:06:24.768Z,99788.38
2023-01-17T09:08:54.752Z,99777.97
2023-01-17T09:11:21.754Z,99791.94
2023-01-17T09:13:48.608Z,99783.75
2023-01-17T09:16:15.538Z,99785.44
2023-01-17T09:18:42.435Z,99779.69
2023-01-17T09:21:14.148Z,99791.06
2023-01-17T09:23:41.758Z,99793.56
2023-01-17T09:26:19.137Z,99775.59
2023-01-17T09:28:46.193Z,99790.81
2023-01-17T09:31:13.888Z,99785.69
2023-01-17T09:33:43.074Z,99778.22
2023-01-17T09:36:11.505Z,99778.38
2023-01-17T09:38:38.846Z,99777.38
2023-01-17T09:41:30.704Z,99780.00
2023-01-17T09:43:57.656Z,99780.44
2023-01-17T09:46:29.727Z,99775.78
2023-01-17T09:49:22.308Z,99780.53
2023-01-17T09:51:49.236Z,99771.53
2023-01-17T09:54:36.279Z,99776.41
2023-01-17T09:57:47.033Z,99789.03
2023-01-17T10:00:30.387Z,99781.47
2023-01-17T10:03:09.421Z,99783.50
2023-01-17T10:05:57.886Z,99782.94
2023-01-17T10:08:38.015Z,99782.69
2023-01-17T10:11:15.271Z,99781.22
2023-01-17T10:14:00.737Z,99772.91
2023-01-17T10:16:49.427Z,99787.38
2023-01-17T10:19:29.311Z,99779.00
2023-01-17T10:22:20.051Z,99776.16
2023-01-17T10:25:13.246Z,99777.69
2023-01-17T10:28:24.956Z,99772.38
2023-01-17T10:30:58.309Z,99776.06
2023-01-17T10:33:29.104Z,99779.00
2023-01-17T10:35:59.692Z,99772.00
2023-01-17T10:38:36.094Z,99774.66
2023-01-17T10:41:17.221Z,99774.22
2023-01-17T10:44:02.702Z,99766.84
2023-01-17T10:46:44.060Z,99776.53
2023-01-17T10:49:23.521Z,99762.81
2023-01-17T10:52:02.707Z,99767.69
2023-01-17T10:54:49.666Z,99769.72
2023-01-17T10:57:21.674Z,99772.66
2023-01-17T10:59:49.279Z,99768.31
2023-01-17T11:02:24.889Z,99770.81
2023-01-17T11:04:54.890Z,99767.03
2023-01-17T11:07:27.439Z,99775.06
2023-01-17T11:09:56.609Z,99788.41
2023-01-17T11:12:29.535Z,99772.94
2023-01-17T11:15:05.376Z,99776.34
2023-01-17T11:17:33.938Z,99773.56
2023-01-17T11:20:20.255Z,99766.47
2023-01-17T11:23:06.543Z,99760.66
2023-01-17T11:25:34.531Z,99765.56
2023-01-17T11:28:05.744Z,99765.75
2023-01-17T11:30:32.827Z,99766.84
2023-01-17T11:33:06.232Z,99755.47
2023-01-17T11:35:44.118Z,99762.97
2023-01-17T11:38:13.637Z,99759.28
2023-01-17T11:41:20.351Z,99763.50
2023-01-17T11:43:56.614Z,99760.66
2023-01-17T11:46:24.451Z,99764.81
2023-01-17T11:48:56.063Z,99753.72
2023-01-17T11:51:35.055Z,99768.50
2023-01-17T11:54:39.672Z,99763.13
2023-01-17T11:57:17.788Z,99760.38
2023-01-17T11:59:45.305Z,99754.53
2023-01-17T12:03:00.098Z,99770.94
2023-01-17T12:05:53.706Z,99763.59
2023-01-17T12:09:00.644Z,99763.50
2023-01-17T12:12:06.740Z,99768.47
2023-01-17T12:14:55.025Z,99762.84
2023-01-17T12:17:27.603Z,99757.22
2023-01-17T12:20:06.301Z,99769.22
2023-01-17T12:22:58.113Z,99769.41
2023-01-17T12:25:28.976Z,99756.13
2023-01-17T12:27:59.969Z,99762.56
2023-01-17T12:31:11.961Z,99758.50
2023-01-17T12:33:46.153Z,99758.28
2023-01-17T12:36:37.178Z,99758.50
2023-01-17T12:39:10.232Z,99761.28
2023-01-17T12:41:50.918Z,99752.13
2023-01-17T12:44:21.781Z,99768.34
2023-01-17T12:46:59.028Z,99767.47
2023-01-17T12:49:42.978Z,99769.03
2023-01-17T12:52:34.659Z,99766.97
2023-01-17T12:55:09.798Z,99755.19
2023-01-17T12:57:45.439Z,99768.94
2023-01-17T13:00:23.165Z,99763.69
2023-01-17T13:02:56.782Z,99764.59
2023-01-17T13:05:37.302Z,99760.72
2023-01-17T13:08:15.758Z,99755.31
2023-01-17T13:10:52.154Z,99761.97
2023-01-17T13:13:28.180Z,99760.78
2023-01-17T13:16:13.315Z,99754.22
2023-01-17T13:18:46.394Z,99752.69
2023-01-17T13:21:16.354Z,99761.34
2023-01-17T13:24:07.849Z,99758.38
2023-01-17T13:27:02.590Z,99746.84
2023-01-17T13:29:52.391Z,99753.13
2023-01-17T13:32:38.081Z,99752.41
2023-01-17T13:35:16.328Z,99752.94
2023-01-17T13:38:04.157Z,99755.13
2023-01-17T13:40:49.700Z,99749.88
2023-01-17T13:43:30.569Z,99747.28
2023-01-17T13:46:01.389Z,99755.31
2023-01-17T13:48:31.755Z,99748.66
2023-01-17T13:51:06.461Z,99751.34
2023-01-17T13:53:39.119Z,99753.66
2023-01-17T13:56:27.762Z,99752.16
2023-01-17T13:59:02.821Z,99735.75
2023-01-17T14:01:34.853Z,99740.94
2023-01-17T14:04:04.902Z,99745.75
2023-01-17T14:06:41.177Z,99738.00
2023-01-17T14:09:08.111Z,99737.06
2023-01-17T14:11:52.824Z,99732.66
2023-01-17T14:14:44.538Z,99740.38
2023-01-17T14:17:23.734Z,99735.03
2023-01-17T14:19:51.419Z,99747.28
2023-01-17T14:22:21.055Z,99733.94
2023-01-17T14:25:15.158Z,99734.38
2023-01-17T14:27:50.070Z,99746.09
2023-01-17T14:30:17.568Z,99739.53
2023-01-17T14:33:17.009Z,99744.28
2023-01-17T14:35:54.454Z,99742.41
2023-01-17T14:38:24.563Z,99740.78
2023-01-17T14:40:54.496Z,99740.59
2023-01-17T14:43:23.865Z,99740.97
2023-01-17T14:46:00.824Z,99738.00
2023-01-17T14:48:29.018Z,99738.09
2023-01-17T14:51:00.170Z,99727.97
2023-01-17T14:53:31.624Z,99724.72
2023-01-17T14:56:02.249Z,99727.31
2023-01-17T14:58:34.390Z,99721.31
2023-01-17T15:01:05.273Z,99724.94
2023-01-17T15:03:41.961Z,99725.13
2023-01-17T15:06:21.911Z,99725.66
2023-01-17T15:08:49.533Z,99729.34
2023-01-17T15:11:21.146Z,99724.00
2023-01-17T15:13:51.481Z,99712.75
2023-01-17T15:16:28.169Z,99728.06
2023-01-17T15:18:57.429Z,99711.31
2023-01-17T15:21:31.273Z,99711.13
2023-01-17T15:24:07.149Z,99711.44
2023-01-17T15:26:36.169Z,99723.03
2023-01-17T15:29:06.556Z,99713.72
2023-01-17T15:31:44.116Z,99719.53
2023-01-17T15:34:30.844Z,99724.28
2023-01-17T15:37:02.420Z,99718.88
2023-01-17T15:39:35.990Z,99721.13
2023-01-17T15:42:06.698Z,99733.91
2023-01-17T15:44:48.941Z,99733.38
2023-01-17T15:47:33.070Z,99724.16
2023-01-17T15:50:17.892Z,99725.91
2023-01-17T15:53:27.720Z,99736.34
2023-01-17T15:55:54.817Z,99715.88
2023-01-17T15:58:27.847Z,99720.22
2023-01-17T16:00:55.630Z,99719.72
2023-01-17T16:03:29.455Z,99717.63
2023-01-17T16:06:00.253Z,99716.78
2023-01-17T16:08:38.617Z,99720.50
2023-01-17T16:11:07.900Z,99720.50
2023-01-17T16:13:39.325Z,99718.84
2023-01-17T16:16:11.501Z,99710.28
2023-01-17T16:18:38.853Z,99698.03
2023-01-17T16:21:27.168Z,99722.13
2023-01-17T16:23:54.269Z,99716.69
2023-01-17T16:26:21.542Z,99718.31
2023-01-17T16:28:49.369Z,99713.03
2023-01-17T16:31:17.064Z,99721.59
2023-01-17T16:33:45.985Z,99714.72
2023-01-17T16:36:16.845Z,99713.66
2023-01-17T16:38:45.452Z,99717.06
2023-01-17T16:41:12.598Z,99713.66
2023-01-17T16:43:39.560Z,99708.44
2023-01-17T16:46:06.721Z,99713.22
2023-01-17T16:48:33.791Z,99719.88
2023-01-17T16:51:06.408Z,99725.03
2023-01-17T16:53:33.553Z,99712.66
2023-01-17T16:56:08.895Z,99712.47
2023-01-17T16:58:35.819Z,99722.38
2023-01-17T17:01:02.815Z,99698.19
2023-01-17T17:03:29.931Z,99703.34
2023-01-17T17:05:59.502Z,99699.84
2023-01-17T17:08:29.632Z,99691.97
2023-01-17T17:11:13.173Z,99711.50
2023-01-17T17:13:42.091Z,99697.81
2023-01-17T17:16:11.311Z,99703.66
2023-01-17T17:18:38.349Z,99698.25
2023-01-17T17:21:05.363Z,99702.84
2023-01-17T17:23:32.332Z,99712.28
2023-01-17T17:25:59.288Z,99723.69
2023-01-17T17:28:26.270Z,99714.31
2023-01-17T17:31:06.062Z,99713.59
2023-01-17T17:33:33.189Z,99726.59
2023-01-17T17:36:05.488Z,99711.31
2023-01-17T17:38:35.096Z,99725.03
2023-01-17T17:41:09.943Z,99717.28
2023-01-17T17:43:42.848Z,99721.81
2023-01-17T17:46:09.900Z,99728.22
2023-01-17T17:48:37.220Z,99739.59
2023-01-17T17:51:04.783Z,99745.94
2023-01-17T17:53:32.478Z,99724.28
2023-01-17T17:56:03.922Z,99725.13
2023-01-17T17:58:33.145Z,99731.09
2023-01-17T18:01:05.002Z,99725.94
2023-01-17T18:03:32.889Z,99718.38
2023-01-17T18:06:07.729Z,99721.34
2023-01-17T18:08:35.985Z,99736.56
2023-01-17T18:11:06.236Z,99735.25
2023-01-17T18:13:34.174Z,99732.59
2023-01-17T18:16:04.877Z,99743.72
2023-01-17T18:18:33.062Z,99737.19
2023-01-17T18:21:05.713Z,99730.72
2023-01-17T18:23:32.627Z,99737.75
2023-01-17T18:25:59.540Z,99734.63
2023-01-17T18:28:27.380Z,99735.16
2023-01-17T18:30:54.279Z,99740.69
2023-01-17T18:33:21.231Z,99738.81
2023-01-17T18:35:55.936Z,99736.25
2023-01-17T18:38:22.815Z,99734.59
2023-01-17T18:40:49.662Z,99733.84
2023-01-17T18:43:16.617Z,99749.25
2023-01-17T18:45:43.488Z,99738.84
2023-01-17T18:48:12.031Z,99723.53
2023-01-17T18:50:38.910Z,99729.00
2023-01-17T18:53:05.927Z,99732.03
2023-01-17T18:55:32.823Z,99720.13
2023-01-17T18:57:59.765Z,99714.34
2023-01-17T19:00:26.678Z,99694.25
2023-01-17T19:02:53.777Z,99712.41
2023-01-17T19:05:21.725Z,99705.88
2023-01-17T19:07:48.604Z,99708.38
2023-01-17T19:10:15.762Z,99713.41
2023-01-17T19:12:42.648Z,99710.66
2023-01-17T19:15:10.091Z,99711.00
2023-01-17T19:17:36.947Z,99700.78
2023-01-17T19:20:06.511Z,99700.50
2023-01-17T19:22:33.387Z,99705.66
2023-01-17T19:25:00.336Z,99719.31
2023-01-17T19:27:27.336Z,99751.34
2023-01-17T19:29:54.387Z,99739.94
2023-01-17T19:32:21.272Z,99735.88
2023-01-17T19:34:48.111Z,99734.22
2023-01-17T19:37:15.003Z,99738.84
2023-01-17T19:39:41.868Z,99745.47
2023-01-17T19:42:15.467Z,99745.91
2023-01-17T19:44:42.896Z,99742.44
2023-01-17T19:47:12.771Z,99733.66
2023-01-17T19:49:44.432Z,99722.44
2023-01-17T19:52:11.343Z,99751.72
2023-01-17T19:54:38.225Z,99740.84
2023-01-17T19:57:05.195Z,99746.47
2023-01-17T19:59:32.120Z,99740.69
2023-01-17T20:02:01.220Z,99742.13
2023-01-17T20:04:28.422Z,99740.94
2023-01-17T20:06:55.347Z,99738.66
2023-01-17T20:09:23.912Z,99732.03
2023-01-17T20:11:51.302Z,99733.84
2023-01-17T20:14:18.270Z,99735.78
2023-01-17T20:16:47.591Z,99745.47
2023-01-17T20:19:15.395Z,99769.91
2023-01-17T20:21:42.273Z,99743.31
2023-01-17T20:24:11.023Z,99740.00
2023-01-17T20:26:37.906Z,99745.28
2023-01-17T20:29:10.365Z,99753.81
2023-01-17T20:31:39.177Z,99742.69
2023-01-17T20:34:08.129Z,99749.75
2023-01-17T20:36:35.171Z,99736.50
2023-01-17T20:39:04.798Z,99741.91
2023-01-17T20:41:34.388Z,99730.69
2023-01-17T20:44:03.295Z,99724.41
2023-01-17T20:46:35.767Z,99735.03
2023-01-17T20:49:05.580Z,99758.06
2023-01-17T20:51:34.535Z,99741.72
2023-01-17T20:54:04.770Z,99740.94
2023-01-17T20:56:34.784Z,99744.66
2023-01-17T20:59:06.247Z,99758.00
2023-01-17T21:01:34.516Z,99751.06
2023-01-17T21:04:01.812Z,99774.13
2023-01-17T21:06:29.115Z,99761.50
2023-01-17T21:08:56.149Z,99758.16
2023-01-17T21:11:25.436Z,99749.94
2023-01-17T21:13:52.516Z,99742.13
2023-01-17T21:16:23.043Z,99744.59
2023-01-17T21:18:51.636Z,99751.16
2023-01-17T21:21:24.288Z,99746.00
2023-01-17T21:23:53.754Z,99749.53
2023-01-17T21:26:22.481Z,99742.63
2023-01-17T21:28:50.785Z,99741.69
2023-01-17T21:31:27.204Z,99743.00
2023-01-17T21:33:59.601Z,99743.91
2023-01-17T21:36:29.643Z,99748.25
2023-01-17T21:38:58.618Z,99752.44
2023-01-17T21:41:30.260Z,99754.53
2023-01-17T21:44:00.630Z,99746.63
2023-01-17T21:46:29.176Z,99763.91
2023-01-17T21:48:58.875Z,99757.75
2023-01-17T21:51:45.712Z,99760.41
2023-01-17T21:54:12.794Z,99758.56
2023-01-17T21:56:58.480Z,99762.81
2023-01-17T21:59:25.413Z,99752.63
2023-01-17T22:01:52.365Z,99762.50
2023-01-17T22:04:19.312Z,99751.88
2023-01-17T22:06:46.700Z,99737.09
2023-01-17T22:09:15.185Z,99730.19
2023-01-17T22:11:42.156Z,99728.53
2023-01-17T22:14:09.175Z,99727.94
2023-01-17T22:16:36.177Z,99722.38
2023-01-17T22:19:03.100Z,99715.56
2023-01-17T22:21:29.996Z,99712.22
2023-01-17T22:23:59.348Z,99727.03
2023-01-17T22:26:28.953Z,99730.25
2023-01-17T22:28:56.557Z,99716.41
2023-01-17T22:31:26.411Z,99708.41
2023-01-17T22:33:58.836Z,99715.06
2023-01-17T22:36:26.629Z,99724.50
2023-01-17T22:38:53.621Z,99695.88
2023-01-17T22:41:23.511Z,99701.69
2023-01-17T22:43:52.689Z,99693.78
2023-01-17T22:46:23.468Z,99690.28
2023-01-17T22:48:52.284Z,99696.69
2023-01-17T22:51:20.712Z,99704.59
2023-01-17T22:53:53.199Z,99704.44
2023-01-17T22:56:22.611Z,99690.00
2023-01-17T22:58:50.297Z,99677.22
2023-01-17T23:01:23.001Z,99686.66
2023-01-17T23:03:55.720Z,99676.22
2023-01-17T23:06:35.238Z,99680.69
2023-01-17T23:09:05.457Z,99687.69
2023-01-17T23:11:43.563Z,99685.03
2023-01-17T23:15:06.398Z,99696.97
2023-01-17T23:17:51.817Z,99714.56
2023-01-17T23:20:18.880Z,99714.22
2023-01-17T23:22:45.844Z,99711.25
2023-01-17T23:25:14.269Z,99712.16
2023-01-17T23:28:00.847Z,99712.91
2023-01-17T23:30:34.667Z,99714.88
2023-01-17T23:33:03.489Z,99729.84
2023-01-17T23:35:33.128Z,99727.25
2023-01-17T23:38:18.769Z,99716.31
2023-01-17T23:41:08.862Z,99723.94
2023-01-17T23:43:36.960Z,99723.88
2023-01-17T23:46:04.917Z,99716.41
2023-01-17T23:48:31.908Z,99713.91
2023-01-17T23:51:01.118Z,99721.03
2023-01-17T23:53:28.608Z,99716.78
2023-01-17T23:56:06.213Z,99712.56
2023-01-17T23:58:34.205Z,99706.66
